createdAt,value
2018-11-11T00:00:57.753Z,11.39
2018-11-11T00:05:59.915Z,11.34
2018-11-11T00:11:02.085Z,11.37
2018-11-11T00:16:04.732Z,11.38
2018-11-11T00:21:06.903Z,11.41
2018-11-11T00:26:09.066Z,11.50
2018-11-11T00:31:11.174Z,11.44
2018-11-11T00:36:13.333Z,11.50
2018-11-11T00:41:16.094Z,11.45
2018-11-11T00:46:18.233Z,11.50
2018-11-11T00:51:20.366Z,11.54
2018-11-11T00:56:22.525Z,11.52
2018-11-11T01:01:24.675Z,11.65
2018-11-11T01:06:26.848Z,11.69
2018-11-11T01:11:29.020Z,11.66
2018-11-11T01:16:31.116Z,11.64
2018-11-11T01:21:33.291Z,11.74
2018-11-11T01:26:35.650Z,11.78
2018-11-11T01:31:37.799Z,11.72
2018-11-11T01:36:39.936Z,11.69
2018-11-11T01:41:42.064Z,11.63
2018-11-11T01:46:44.190Z,11.49
2018-11-11T01:51:46.286Z,11.43
2018-11-11T01:56:48.399Z,11.35
2018-11-11T02:01:50.523Z,11.34
2018-11-11T02:06:52.606Z,11.37
2018-11-11T02:11:54.722Z,11.35
2018-11-11T02:16:56.816Z,11.35
2018-11-11T02:21:58.942Z,11.33
2018-11-11T02:27:01.099Z,11.34
2018-11-11T02:32:03.227Z,11.32
2018-11-11T02:37:05.744Z,11.27
2018-11-11T02:42:07.871Z,11.33
2018-11-11T02:47:10.007Z,11.25
2018-11-11T02:52:12.108Z,11.19
2018-11-11T02:57:14.228Z,11.26
2018-11-11T03:02:16.323Z,11.28
2018-11-11T03:07:18.439Z,11.23
2018-11-11T03:12:20.590Z,11.24
2018-11-11T03:17:22.711Z,11.27
2018-11-11T03:22:24.835Z,11.26
2018-11-11T03:27:26.968Z,11.20
2018-11-11T03:32:29.069Z,11.20
2018-11-11T03:37:31.175Z,11.31
2018-11-11T03:42:33.303Z,11.35
2018-11-11T03:47:35.386Z,11.28
2018-11-11T03:52:37.891Z,11.31
2018-11-11T03:57:40.082Z,11.33
2018-11-11T04:02:42.256Z,11.23
2018-11-11T04:07:44.409Z,11.26
2018-11-11T04:12:47.184Z,11.26
2018-11-11T04:17:49.279Z,11.33
2018-11-11T04:22:51.514Z,11.31
2018-11-11T04:27:53.639Z,11.35
2018-11-11T04:32:55.749Z,11.24
2018-11-11T04:37:57.833Z,11.28
2018-11-11T04:42:59.952Z,11.15
2018-11-11T04:48:02.054Z,11.19
2018-11-11T04:53:04.299Z,11.18
2018-11-11T04:58:06.406Z,11.18
2018-11-11T05:03:08.546Z,11.22
2018-11-11T05:08:10.618Z,11.14
2018-11-11T05:13:12.745Z,11.23
2018-11-11T05:18:14.875Z,11.22
2018-11-11T05:23:16.999Z,11.24
2018-11-11T05:28:19.135Z,11.17
2018-11-11T05:33:21.223Z,11.25
2018-11-11T05:38:23.322Z,11.31
2018-11-11T05:43:25.439Z,11.28
2018-11-11T05:48:27.560Z,11.36
2018-11-11T05:53:29.673Z,11.30
2018-11-11T05:58:31.829Z,11.29
2018-11-11T06:03:34.130Z,11.25
2018-11-11T06:08:36.242Z,11.32
2018-11-11T06:13:38.369Z,11.36
2018-11-11T06:18:40.465Z,11.31
2018-11-11T06:23:42.603Z,11.41
2018-11-11T06:28:44.718Z,11.44
2018-11-11T06:33:46.836Z,11.52
2018-11-11T06:38:48.934Z,11.47
2018-11-11T06:43:51.028Z,11.48
2018-11-11T06:48:53.168Z,11.59
2018-11-11T06:53:55.307Z,11.54
2018-11-11T06:58:57.419Z,11.55
2018-11-11T07:04:00.670Z,11.54
2018-11-11T07:09:04.273Z,11.56
2018-11-11T07:14:06.431Z,11.56
2018-11-11T07:19:08.519Z,11.62
2018-11-11T07:24:10.727Z,11.58
2018-11-11T07:29:12.915Z,11.62
2018-11-11T07:34:15.057Z,11.77
2018-11-11T07:39:17.176Z,11.73
2018-11-11T07:44:19.343Z,11.83
2018-11-11T07:49:21.447Z,11.95
2018-11-11T07:54:23.581Z,11.99
2018-11-11T07:59:25.708Z,11.98
2018-11-11T08:04:27.806Z,12.06
2018-11-11T08:09:29.906Z,12.14
2018-11-11T08:14:32.028Z,12.16
2018-11-11T08:19:34.157Z,12.27
2018-11-11T08:24:36.560Z,12.27
2018-11-11T08:29:38.711Z,12.19
2018-11-11T08:34:40.802Z,12.11
2018-11-11T08:39:42.908Z,12.04
2018-11-11T08:44:45.027Z,12.12
2018-11-11T08:49:47.156Z,12.05
2018-11-11T08:54:49.267Z,12.05
2018-11-11T08:59:51.383Z,12.12
2018-11-11T09:04:53.559Z,12.18
2018-11-11T09:09:55.696Z,12.22
2018-11-11T09:14:57.886Z,12.22
2018-11-11T09:20:00.083Z,12.15
2018-11-11T09:25:02.237Z,12.27
2018-11-11T09:30:06.704Z,12.25
2018-11-11T09:35:09.280Z,12.21
2018-11-11T09:40:12.400Z,12.38
2018-11-11T09:45:15.304Z,12.34
2018-11-11T09:50:17.493Z,12.44
2018-11-11T09:55:19.570Z,12.44
2018-11-11T10:00:22.284Z,12.53
2018-11-11T10:05:28.033Z,12.43
2018-11-11T10:10:35.864Z,12.55
2018-11-11T10:16:13.821Z,12.52
2018-11-11T10:23:29.391Z,12.58
2018-11-11T10:28:37.276Z,12.43
2018-11-11T10:33:49.402Z,12.56
2018-11-11T10:39:01.912Z,12.64
2018-11-11T10:44:25.711Z,12.56
2018-11-11T10:49:37.100Z,12.57
2018-11-11T10:54:39.513Z,12.52
2018-11-11T10:59:41.691Z,12.54
2018-11-11T11:04:49.639Z,12.52
2018-11-11T11:09:51.780Z,12.52
2018-11-11T11:14:53.943Z,12.49
2018-11-11T11:19:56.086Z,12.55
2018-11-11T11:24:58.245Z,12.65
2018-11-11T11:30:00.419Z,12.60
2018-11-11T11:35:03.162Z,12.64
2018-11-11T11:40:06.048Z,12.72
2018-11-11T11:45:09.416Z,12.82
2018-11-11T11:50:12.593Z,13.04
2018-11-11T11:55:14.816Z,13.15
2018-11-11T12:00:16.952Z,13.11
2018-11-11T12:05:19.137Z,13.58
2018-11-11T12:10:21.316Z,13.79
2018-11-11T12:15:23.481Z,14.54
2018-11-11T12:20:25.668Z,14.28
2018-11-11T12:25:27.823Z,14.88
2018-11-11T12:30:30.125Z,14.16
2018-11-11T12:35:32.283Z,14.56
2018-11-11T12:40:34.429Z,14.16
2018-11-11T12:45:36.618Z,13.86
2018-11-11T12:50:38.813Z,13.71
2018-11-11T12:55:40.961Z,13.67
2018-11-11T13:00:43.150Z,14.89
2018-11-11T13:05:45.274Z,15.54
2018-11-11T13:10:47.391Z,14.52
2018-11-11T13:15:49.532Z,14.02
2018-11-11T13:20:51.750Z,13.73
2018-11-11T13:25:53.904Z,13.66
2018-11-11T13:30:56.101Z,13.54
2018-11-11T13:35:58.352Z,13.41
2018-11-11T13:41:00.508Z,13.33
2018-11-11T13:46:02.688Z,13.12
2018-11-11T13:51:04.872Z,12.77
2018-11-11T13:56:07.039Z,12.29
2018-11-11T14:01:09.235Z,12.14
2018-11-11T14:06:11.390Z,12.25
2018-11-11T14:11:13.624Z,12.77
2018-11-11T14:16:15.805Z,12.54
2018-11-11T14:21:17.984Z,12.41
2018-11-11T14:26:20.213Z,12.28
2018-11-11T14:31:22.340Z,12.27
2018-11-11T14:36:24.532Z,12.24
2018-11-11T14:41:26.820Z,12.19
2018-11-11T14:46:29.001Z,12.15
2018-11-11T14:51:31.455Z,12.15
2018-11-11T14:56:33.689Z,12.21
2018-11-11T15:01:35.966Z,12.19
2018-11-11T15:06:38.138Z,12.03
2018-11-11T15:11:40.892Z,12.11
2018-11-11T15:16:43.057Z,12.11
2018-11-11T15:21:45.256Z,12.12
2018-11-11T15:26:47.400Z,12.10
2018-11-11T15:31:49.616Z,12.14
2018-11-11T15:36:51.818Z,12.07
2018-11-11T15:41:53.992Z,12.18
2018-11-11T15:46:56.151Z,12.23
2018-11-11T15:51:58.351Z,12.19
2018-11-11T15:57:00.517Z,12.16
2018-11-11T16:02:02.764Z,12.19
2018-11-11T16:07:05.122Z,12.24
2018-11-11T16:12:07.328Z,12.28
2018-11-11T16:17:09.510Z,12.25
2018-11-11T16:22:11.695Z,12.15
2018-11-11T16:27:13.867Z,12.08
2018-11-11T16:32:16.100Z,12.09
2018-11-11T16:37:18.315Z,12.10
2018-11-11T16:42:20.730Z,12.02
2018-11-11T16:47:22.882Z,12.06
2018-11-11T16:52:24.986Z,12.10
2018-11-11T16:57:27.114Z,12.17
2018-11-11T17:02:29.655Z,12.08
2018-11-11T17:07:31.811Z,12.03
2018-11-11T17:12:33.990Z,11.98
2018-11-11T17:17:36.357Z,11.91
2018-11-11T17:22:38.690Z,11.85
2018-11-11T17:27:41.049Z,11.87
2018-11-11T17:32:43.995Z,12.01
2018-11-11T17:37:46.451Z,11.87
2018-11-11T17:42:49.566Z,11.94
2018-11-11T17:47:52.568Z,11.90
2018-11-11T17:52:54.771Z,11.88
2018-11-11T17:57:57.144Z,11.98
2018-11-11T18:03:00.181Z,11.98
2018-11-11T18:08:02.717Z,11.96
2018-11-11T18:13:05.501Z,11.94
2018-11-11T18:18:07.861Z,11.90
2018-11-11T18:23:10.733Z,11.87
2018-11-11T18:28:13.314Z,11.86
2018-11-11T18:33:16.739Z,11.66
2018-11-11T18:38:21.013Z,11.67
2018-11-11T18:43:25.362Z,11.76
2018-11-11T18:48:27.949Z,11.70
2018-11-11T18:53:31.659Z,11.64
2018-11-11T18:58:34.548Z,11.64
2018-11-11T19:03:37.520Z,11.66
2018-11-11T19:08:40.275Z,11.63
2018-11-11T19:13:43.751Z,11.73
2018-11-11T19:18:47.946Z,11.68
2018-11-11T19:23:52.282Z,11.71
2018-11-11T19:28:55.132Z,11.72
2018-11-11T19:33:58.910Z,11.77
2018-11-11T19:39:04.777Z,11.82
2018-11-11T19:44:09.092Z,11.84
2018-11-11T19:49:13.806Z,11.72
2018-11-11T19:54:19.814Z,11.78
2018-11-11T19:59:23.654Z,11.76
2018-11-11T20:04:28.381Z,11.69
2018-11-11T20:09:33.569Z,11.69
2018-11-11T20:14:37.871Z,11.60
2018-11-11T20:19:41.145Z,11.70
2018-11-11T20:24:44.961Z,11.73
2018-11-11T20:29:48.421Z,11.73
2018-11-11T20:34:52.587Z,11.60
2018-11-11T20:39:56.246Z,11.56
2018-11-11T20:45:00.149Z,11.50
2018-11-11T20:50:03.657Z,11.54
2018-11-11T20:55:07.881Z,11.47
2018-11-11T21:00:14.228Z,11.44
2018-11-11T21:05:19.801Z,11.45
2018-11-11T21:10:24.042Z,11.37
2018-11-11T21:15:27.540Z,11.35
2018-11-11T21:20:31.242Z,11.29
2018-11-11T21:25:34.820Z,11.26
2018-11-11T21:30:37.045Z,11.40
2018-11-11T21:35:40.606Z,11.34
2018-11-11T21:40:42.855Z,11.24
2018-11-11T21:45:45.122Z,11.25
2018-11-11T21:50:47.394Z,11.30
2018-11-11T21:55:49.857Z,11.19
2018-11-11T22:00:52.383Z,11.26
2018-11-11T22:05:54.915Z,11.21
2018-11-11T22:10:57.143Z,11.19
2018-11-11T22:16:00.419Z,11.08
2018-11-11T22:21:02.508Z,10.98
2018-11-11T22:26:05.552Z,10.96
2018-11-11T22:31:08.604Z,11.06
2018-11-11T22:36:10.823Z,10.96
2018-11-11T22:41:13.029Z,10.94
2018-11-11T22:46:15.194Z,10.95
2018-11-11T22:51:17.380Z,10.98
2018-11-11T22:56:19.527Z,10.76
2018-11-11T23:01:21.973Z,10.72
2018-11-11T23:06:24.020Z,10.70
2018-11-11T23:11:26.158Z,10.81
2018-11-11T23:16:28.286Z,10.76
2018-11-11T23:21:30.447Z,10.68
2018-11-11T23:26:32.590Z,10.68
2018-11-11T23:31:34.746Z,10.66
2018-11-11T23:36:36.864Z,10.48
2018-11-11T23:41:39.033Z,10.56
2018-11-11T23:46:41.167Z,10.55
2018-11-11T23:51:43.321Z,10.49
2018-11-11T23:56:46.043Z,10.50
